Time;durP1;ratioP1;P1;durP2;ratioP2;P2;SDS_P1;SDS_P2;PMS_P1;PMS_P2;Temp;Humidity;BMP_temperature;BMP_pressure;BME280_temperature;BME280_humidity;BME280_pressure;Samples;Min_cycle;Max_cycle;Signal;HPM_P1;HPM_P2
2023/12/10 00:01:25;;;;;;;0.15;0.15;;;;;;;9.90;60.33;94416.19;6227628;22;20014;-85
2023/12/10 00:06:29;;;;;;;1.00;0.20;;;;;;;9.64;60.58;94447.22;6303707;22;20038;-86
2023/12/10 00:08:56;;;;;;;0.93;0.10;;;;;;;9.56;61.75;94466.34;6226722;22;20015;-85
2023/12/10 00:11:21;;;;;;;0.17;0.10;;;;;;;9.18;62.54;94467.44;6277370;22;20007;-86
2023/12/10 00:23:57;;;;;;;0.90;0.10;;;;;;;8.95;62.57;94478.03;6304177;22;20031;-86
2023/12/10 00:26:26;;;;;;;0.15;0.10;;;;;;;8.79;62.90;94484.22;6277658;22;20015;-86
2023/12/10 00:28:53;;;;;;;0.10;0.10;;;;;;;9.22;62.31;94483.44;6227269;22;20011;-86
2023/12/10 00:31:19;;;;;;;0.25;0.10;;;;;;;9.13;62.51;94474.19;6225589;22;20057;-86
2023/12/10 00:41:21;;;;;;;0.25;0.10;;;;;;;9.16;62.66;94497.16;6306060;22;20019;-86
2023/12/10 00:43:46;;;;;;;0.55;0.10;;;;;;;9.10;63.13;94523.84;6253714;22;20015;-86
2023/12/10 00:46:12;;;;;;;0.20;0.10;;;;;;;9.24;62.17;94514.41;6253564;22;20011;-86
2023/12/10 00:48:38;;;;;;;0.65;0.05;;;;;;;9.29;61.92;94528.41;6253245;22;20068;-86
2023/12/10 00:53:31;;;;;;;0.85;0.22;;;;;;;9.36;62.08;94525.88;6272500;22;20035;-86
2023/12/10 00:55:59;;;;;;;0.57;0.20;;;;;;;9.26;62.10;94540.97;6248431;22;20015;-86
2023/12/10 00:58:24;;;;;;;0.10;0.10;;;;;;;9.36;61.41;94538.84;6223365;22;20011;-86
2023/12/10 01:05:50;;;;;;;1.48;0.40;;;;;;;9.15;61.26;94534.47;6305812;22;20027;-86
2023/12/10 01:08:16;;;;;;;0.32;0.10;;;;;;;9.14;61.24;94548.44;6253887;22;20022;-87
2023/12/10 01:10:42;;;;;;;0.77;0.10;;;;;;;9.05;61.46;94557.31;6278612;22;20003;-86
2023/12/10 01:13:08;;;;;;;0.30;0.10;;;;;;;8.94;62.40;94574.16;6253082;22;20080;-87
2023/12/10 01:15:33;;;;;;;1.13;0.17;;;;;;;9.07;61.94;94584.69;6253442;22;20023;-86
2023/12/10 01:18:02;;;;;;;0.17;0.13;;;;;;;9.08;61.72;94590.66;6227932;22;20011;-86
2023/12/10 01:20:32;;;;;;;0.15;0.15;;;;;;;9.28;61.58;94609.03;6278976;22;20035;-86
2023/12/10 01:22:58;;;;;;;0.17;0.10;;;;;;;9.15;62.08;94633.84;6276905;22;20006;-86
2023/12/10 01:28:02;;;;;;;2.92;0.35;;;;;;;9.02;61.77;94656.25;6280609;22;20027;-85
2023/12/10 01:30:29;;;;;;;3.78;0.60;;;;;;;8.70;62.70;94642.69;6278641;22;20041;-86
2023/12/10 01:32:58;;;;;;;4.10;0.60;;;;;;;8.96;61.74;94644.81;6253069;22;20015;-86
2023/12/10 01:35:27;;;;;;;2.72;0.40;;;;;;;8.41;62.02;94650.31;6253152;22;20010;-86
2023/12/10 01:37:54;;;;;;;0.77;0.40;;;;;;;8.71;62.27;94644.31;6253373;22;20011;-87
2023/12/10 02:12:19;;;;;;;2.33;0.30;;;;;;;8.41;63.63;94675.34;6303851;22;20027;-87
2023/12/10 02:17:24;;;;;;;3.70;0.30;;;;;;;8.26;63.78;94666.75;6305075;22;20026;-87
2023/12/10 02:19:50;;;;;;;1.77;0.40;;;;;;;8.27;63.65;94660.63;6278040;22;20003;-85
2023/12/10 02:22:19;;;;;;;2.30;0.52;;;;;;;7.95;64.69;94644.38;6278014;22;20014;-86
2023/12/10 02:24:54;;;;;;;1.47;0.57;;;;;;;7.82;65.32;94671.69;6278468;22;20003;-87
2023/12/10 02:29:55;;;;;;;1.25;0.40;;;;;;;7.79;64.83;94660.88;6303179;22;20023;-86
2023/12/10 02:32:23;;;;;;;1.95;0.40;;;;;;;7.59;65.86;94678.63;6252481;22;20018;-86
2023/12/10 02:34:49;;;;;;;1.15;0.20;;;;;;;7.72;64.88;94675.47;6277344;22;20019;-87
2023/12/10 02:37:14;;;;;;;0.82;0.32;;;;;;;8.04;64.35;94658.88;6252163;22;20022;-85
2023/12/10 02:42:08;;;;;;;2.60;0.32;;;;;;;7.23;66.37;94638.59;6239781;22;20015;-87
2023/12/10 02:44:33;;;;;;;2.53;0.50;;;;;;;7.54;65.49;94642.09;6251858;22;20132;-86
2023/12/10 02:46:59;;;;;;;2.15;0.40;;;;;;;7.98;64.35;94633.69;6226650;22;20039;-86
2023/12/10 02:51:50;;;;;;;2.90;0.40;;;;;;;8.05;63.76;94646.72;6272995;22;20027;-86
2023/12/10 02:54:17;;;;;;;1.90;0.50;;;;;;;8.31;61.19;94626.38;6221898;22;20019;-86
2023/12/10 02:56:43;;;;;;;2.63;0.60;;;;;;;8.04;62.93;94627.78;6221555;22;20076;-86
2023/12/10 02:59:11;;;;;;;4.78;1.10;;;;;;;7.77;63.09;94631.75;6246848;22;20034;-86
2023/12/10 03:01:36;;;;;;;5.07;1.10;;;;;;;8.22;60.67;94617.09;6246142;22;20008;-86
2023/12/10 03:06:37;;;;;;;5.95;1.10;;;;;;;8.26;61.12;94614.94;6272757;22;20031;-85
2023/12/10 03:09:04;;;;;;;8.05;1.40;;;;;;;8.41;60.31;94626.97;6245844;22;20026;-85
2023/12/10 03:11:30;;;;;;;8.80;1.48;;;;;;;8.49;60.05;94613.13;6221337;22;20008;-86
2023/12/10 03:23:56;;;;;;;9.45;1.08;;;;;;;9.48;57.68;94643.78;6264340;22;20029;-86
2023/12/10 03:26:22;;;;;;;6.18;1.50;;;;;;;9.54;56.82;94637.06;6252053;22;20014;-87
2023/12/10 03:28:47;;;;;;;5.88;1.10;;;;;;;9.59;55.18;94642.47;6277303;22;20067;-87
2023/12/10 03:31:13;;;;;;;8.65;1.30;;;;;;;9.61;56.36;94666.47;6277235;22;20007;-86
2023/12/10 03:36:04;;;;;;;7.22;1.10;;;;;;;9.83;55.51;94679.47;6302581;22;20016;-86
2023/12/10 03:38:33;;;;;;;4.88;1.17;;;;;;;9.76;55.72;94677.59;6225901;22;20003;-87
2023/12/10 03:40:58;;;;;;;9.13;1.80;;;;;;;9.72;56.02;94681.56;6226373;22;20086;-86
2023/12/10 03:43:26;;;;;;;9.45;1.70;;;;;;;9.50;57.34;94682.53;6251734;22;20035;-86
2023/12/10 03:50:45;;;;;;;7.63;2.13;;;;;;;9.81;56.55;94668.47;6267578;22;20024;-87
2023/12/10 03:53:11;;;;;;;10.27;1.70;;;;;;;10.02;56.01;94686.63;6277225;22;20000;-86
2023/12/10 03:55:37;;;;;;;9.00;1.15;;;;;;;9.82;56.05;94690.84;6226307;22;20153;-86
2023/12/10 03:58:02;;;;;;;7.72;1.38;;;;;;;9.96;55.86;94703.78;6251622;22;20137;-86
2023/12/10 04:10:48;;;;;;;8.25;1.65;;;;;;;9.78;57.90;94722.38;6304312;22;21168;-85
2023/12/10 04:13:15;;;;;;;10.57;1.63;;;;;;;9.74;57.99;94721.13;6228029;22;20015;-86
2023/12/10 04:15:44;;;;;;;10.73;1.73;;;;;;;9.79;57.81;94708.41;6279331;22;20011;-86
2023/12/10 04:20:39;;;;;;;9.73;1.90;;;;;;;9.56;58.21;94702.59;6268552;22;20008;-86
2023/12/10 04:41:45;;;;;;;13.45;1.65;;;;;;;9.60;58.56;94747.97;6276955;22;20032;-86
2023/12/10 04:51:46;;;;;;;9.35;1.35;;;;;;;9.67;58.70;94767.03;6303811;22;20081;-86
2023/12/10 04:54:15;;;;;;;11.27;1.73;;;;;;;9.61;59.07;94769.53;6278954;22;20357;-86
2023/12/10 04:56:40;;;;;;;9.73;1.80;;;;;;;9.67;59.00;94771.38;6253223;22;20007;-86
2023/12/10 05:01:31;;;;;;;10.87;1.70;;;;;;;9.59;59.05;94796.50;6303758;22;20023;-86
2023/12/10 05:03:59;;;;;;;8.57;1.40;;;;;;;9.58;59.24;94794.06;6252063;22;20232;-86
2023/12/10 05:06:25;;;;;;;12.25;1.80;;;;;;;9.53;59.54;94786.81;6253298;22;20011;-85
2023/12/10 05:08:50;;;;;;;8.35;1.95;;;;;;;9.61;59.56;94793.69;6252985;22;20022;-86
2023/12/10 05:13:41;;;;;;;10.75;1.58;;;;;;;9.62;58.79;94779.75;6294535;22;20054;-86
2023/12/10 05:16:10;;;;;;;7.80;1.52;;;;;;;9.65;59.15;94778.56;6278465;22;20056;-86
2023/12/10 05:18:35;;;;;;;11.32;1.60;;;;;;;9.46;60.02;94783.34;6227717;22;20007;-86
2023/12/10 05:21:03;;;;;;;11.25;1.85;;;;;;;9.66;59.42;94790.56;6252543;22;20060;-86
2023/12/10 05:23:29;;;;;;;11.73;1.45;;;;;;;9.63;59.33;94781.34;6253322;22;20007;-87
2023/12/10 05:28:23;;;;;;;9.45;1.42;;;;;;;9.82;58.85;94805.13;6281923;22;20023;-86
2023/12/10 05:40:59;;;;;;;8.25;1.40;;;;;;;9.43;60.84;94809.66;6305084;22;20023;-86
2023/12/10 05:43:25;;;;;;;9.05;1.42;;;;;;;9.36;59.77;94806.16;6278425;22;20006;-86
2023/12/10 05:45:51;;;;;;;9.20;1.67;;;;;;;9.47;59.31;94802.31;6252874;22;20027;-86
2023/12/10 05:48:16;;;;;;;9.82;1.30;;;;;;;9.43;59.08;94806.28;6252736;22;20015;-86
2023/12/10 05:50:41;;;;;;;9.25;1.45;;;;;;;9.47;59.01;94810.91;6252480;22;20018;-86
2023/12/10 05:53:07;;;;;;;10.40;1.45;;;;;;;9.44;59.21;94806.06;6252454;22;20375;-85
2023/12/10 05:55:32;;;;;;;6.40;1.33;;;;;;;9.37;59.41;94806.00;6252770;22;20007;-86
2023/12/10 06:00:33;;;;;;;7.95;1.50;;;;;;;8.96;60.42;94816.78;6304325;22;20015;-85
2023/12/10 06:18:30;;;;;;;7.90;1.50;;;;;;;9.05;59.77;94853.06;6303361;22;20016;-86
2023/12/10 06:25:58;;;;;;;6.57;1.30;;;;;;;9.14;60.11;94852.78;6302877;22;20027;-85
2023/12/10 06:28:23;;;;;;;11.85;1.55;;;;;;;9.12;60.44;94859.13;6252065;22;20061;-86
2023/12/10 06:30:49;;;;;;;11.60;2.10;;;;;;;9.28;59.30;94847.78;6250691;22;20003;-85
2023/12/10 06:33:14;;;;;;;8.95;1.45;;;;;;;9.35;58.93;94859.09;6277377;22;20007;-86
2023/12/10 06:35:40;;;;;;;7.45;1.40;;;;;;;9.21;59.52;94850.28;6252053;22;20017;-87
2023/12/10 06:38:09;;;;;;;9.48;1.38;;;;;;;9.06;60.47;94865.81;6277427;22;20003;-86
2023/12/10 06:40:35;;;;;;;7.05;1.80;;;;;;;8.94;60.26;94862.84;6251480;22;20003;-86
2023/12/10 06:43:01;;;;;;;7.95;1.65;;;;;;;9.12;59.24;94874.69;6277675;22;20006;-86
2023/12/10 06:45:27;;;;;;;7.80;1.50;;;;;;;9.18;59.63;94874.00;6277455;22;20027;-86
2023/12/10 06:55:28;;;;;;;13.50;5.85;;;;;;;9.00;60.20;94858.75;6275576;22;20023;-86
2023/12/10 06:57:54;;;;;;;25.80;12.45;;;;;;;9.03;60.12;94860.22;6277577;22;20029;-85
2023/12/10 07:00:19;;;;;;;14.48;6.20;;;;;;;9.19;59.37;94857.44;6277063;22;20041;-86
2023/12/10 07:02:47;;;;;;;9.85;3.03;;;;;;;9.09;59.68;94870.66;6251906;22;20007;-85
2023/12/10 07:05:13;;;;;;;8.10;2.10;;;;;;;9.03;59.70;94860.22;6251702;22;20011;-85
2023/12/10 07:10:04;;;;;;;6.90;1.40;;;;;;;9.13;59.43;94887.50;6267779;22;20019;-86
2023/12/10 07:12:30;;;;;;;7.15;1.20;;;;;;;9.16;59.04;94884.56;6251566;22;20008;-86
2023/12/10 07:19:56;;;;;;;4.28;2.00;;;;;;;9.23;58.89;94904.59;6297232;22;20019;-86
2023/12/10 07:22:21;;;;;;;7.95;1.63;;;;;;;9.26;58.66;94907.66;6278098;22;20084;-86
2023/12/10 07:24:47;;;;;;;7.88;1.67;;;;;;;9.27;58.48;94918.84;6251920;22;20045;-86
2023/12/10 07:27:12;;;;;;;8.10;1.63;;;;;;;9.42;58.02;94903.28;6252114;22;20011;-86
2023/12/10 07:29:38;;;;;;;9.02;1.52;;;;;;;9.37;57.94;94909.81;6276876;22;20082;-86
2023/12/10 07:34:29;;;;;;;11.02;1.63;;;;;;;9.17;58.27;94926.88;6303105;22;20023;-86
2023/12/10 07:36:58;;;;;;;7.88;1.30;;;;;;;9.39;58.39;94944.19;6277253;22;20007;-86
2023/12/10 07:39:24;;;;;;;6.95;1.40;;;;;;;9.36;58.25;94954.91;6251764;22;20057;-85
2023/12/10 07:41:52;;;;;;;6.38;1.30;;;;;;;9.50;56.78;94948.16;6252718;22;20018;-86
2023/12/10 07:54:09;;;;;;;9.35;1.38;;;;;;;9.53;58.30;94971.16;6304636;22;20316;-86
2023/12/10 07:56:34;;;;;;;8.20;1.60;;;;;;;9.70;57.08;94973.59;6254050;22;20007;-85
2023/12/10 07:59:02;;;;;;;7.13;1.25;;;;;;;9.75;56.96;94972.06;6253810;22;20023;-86
2023/12/10 08:01:28;;;;;;;4.60;0.80;;;;;;;9.64;57.82;94969.13;6278633;22;20005;-86
2023/12/10 08:08:54;;;;;;;8.07;1.17;;;;;;;9.90;56.77;94994.63;6305780;22;20031;-86
2023/12/10 08:11:21;;;;;;;5.30;1.08;;;;;;;9.78;57.44;94991.69;6228080;22;20015;-85
2023/12/10 08:13:47;;;;;;;5.00;1.20;;;;;;;9.98;56.74;95002.38;6253070;22;20038;-87
2023/12/10 08:16:12;;;;;;;6.68;1.15;;;;;;;10.08;55.33;95010.69;6279281;22;20011;-86
2023/12/10 08:21:03;;;;;;;4.47;1.10;;;;;;;9.87;55.99;94993.22;6275268;22;20023;-86
2023/12/10 08:23:29;;;;;;;5.78;1.10;;;;;;;9.89;56.33;95004.22;6279196;22;20003;-86
2023/12/10 08:25:54;;;;;;;3.78;1.02;;;;;;;10.03;56.14;95004.41;6278786;22;20057;-86
2023/12/10 08:28:20;;;;;;;7.43;1.38;;;;;;;9.87;56.25;95006.22;6253631;22;20010;-86
2023/12/10 08:35:50;;;;;;;5.57;1.02;;;;;;;10.06;56.43;95017.06;6305620;22;20019;-86
2023/12/10 08:38:15;;;;;;;4.57;1.33;;;;;;;10.20;55.57;95024.03;6228380;22;20010;-86
2023/12/10 08:45:52;;;;;;;5.63;1.00;;;;;;;9.91;56.79;95022.25;6305176;22;20088;-86
2023/12/10 08:48:21;;;;;;;5.72;1.13;;;;;;;10.05;55.49;95021.47;6252929;22;20068;-86
2023/12/10 08:50:51;;;;;;;;;;;;;;;9.78;56.74;95031.44;6253721;22;20054;-86
2023/12/10 08:53:17;;;;;;;7.90;1.50;;;;;;;10.01;55.72;95017.59;6252754;22;19946;-86
2023/12/10 08:58:18;;;;;;;5.22;1.00;;;;;;;10.00;56.30;95052.34;6273634;22;20030;-87
2023/12/10 09:00:43;;;;;;;7.07;1.02;;;;;;;10.13;55.71;95052.56;6251408;22;20023;-85
2023/12/10 09:03:12;;;;;;;7.28;1.40;;;;;;;10.08;55.71;95048.88;6252309;22;20007;-87
2023/12/10 09:10:37;;;;;;;6.22;1.17;;;;;;;10.20;56.26;95054.44;6302689;22;21088;-85
2023/12/10 09:13:03;;;;;;;3.30;1.00;;;;;;;10.16;55.93;95051.38;6252352;22;20092;-85
2023/12/10 09:15:28;;;;;;;5.00;1.00;;;;;;;10.20;55.76;95057.03;6251199;22;20015;-87
2023/12/10 09:17:54;;;;;;;6.60;1.23;;;;;;;10.36;56.02;95067.28;6252113;22;20023;-85
2023/12/10 09:20:19;;;;;;;7.20;1.33;;;;;;;10.34;55.52;95056.25;6251910;22;20018;-85
2023/12/10 09:22:45;;;;;;;6.53;1.30;;;;;;;10.52;54.94;95064.47;6277139;22;20003;-86
2023/12/10 09:25:14;;;;;;;6.20;1.70;;;;;;;10.42;55.73;95074.38;6251113;22;19999;-85
2023/12/10 09:27:40;;;;;;;7.50;1.40;;;;;;;10.55;54.90;95082.34;6277300;22;20010;-87
2023/12/10 09:30:06;;;;;;;10.00;1.50;;;;;;;10.33;55.71;95078.03;6251887;22;20011;-86
2023/12/10 09:34:57;;;;;;;7.15;1.10;;;;;;;10.12;56.69;95066.50;6303975;22;20070;-86
2023/12/10 09:37:23;;;;;;;5.53;1.15;;;;;;;10.33;55.97;95072.84;6277450;22;20007;-86
2023/12/10 09:39:48;;;;;;;7.70;1.20;;;;;;;10.34;56.26;95071.88;6226823;22;19999;-86
2023/12/10 09:42:14;;;;;;;7.70;1.40;;;;;;;10.50;55.52;95071.66;6252354;22;20011;-86
2023/12/10 09:44:39;;;;;;;9.30;1.73;;;;;;;10.32;55.74;95069.44;6252202;22;20007;-85
2023/12/10 09:52:15;;;;;;;6.93;1.20;;;;;;;10.39;54.39;95082.50;6297237;22;20019;-86
2023/12/10 09:54:41;;;;;;;6.20;1.42;;;;;;;10.16;54.73;95066.97;6277105;22;20085;-85
2023/12/10 09:57:07;;;;;;;6.13;1.30;;;;;;;10.13;54.26;95068.16;6252366;22;20022;-85
2023/12/10 09:59:34;;;;;;;5.57;1.40;;;;;;;9.79;55.64;95071.22;6277921;22;20011;-85
2023/12/10 10:01:59;;;;;;;5.25;1.23;;;;;;;9.78;55.51;95075.59;6252115;22;20011;-86
2023/12/10 10:06:51;;;;;;;5.47;1.20;;;;;;;10.38;52.02;95060.13;6258075;22;20027;-85
2023/12/10 10:09:17;;;;;;;6.43;1.40;;;;;;;10.37;51.64;95069.69;6277936;22;20003;-85
2023/12/10 10:11:48;;;;;;;5.55;1.13;;;;;;;10.28;53.53;95070.75;6277165;22;20066;-85
2023/12/10 10:14:14;;;;;;;7.53;1.40;;;;;;;10.25;54.10;95075.50;6278054;22;20011;-86
2023/12/10 10:16:47;;;;;;;7.82;1.20;;;;;;;10.45;53.40;95075.78;6226660;22;20086;-85
2023/12/10 10:21:40;;;;;;;5.30;1.27;;;;;;;10.73;51.81;95087.16;6284814;22;20023;-86
2023/12/10 10:24:06;;;;;;;5.47;1.30;;;;;;;10.62;53.66;95086.81;6252335;22;20003;-86
2023/12/10 10:26:34;;;;;;;4.50;1.13;;;;;;;10.59;55.26;95084.59;6226702;22;20003;-86
2023/12/10 10:29:04;;;;;;;5.47;1.30;;;;;;;10.50;53.78;95078.66;6277055;22;20003;-85
2023/12/10 10:31:32;;;;;;;5.82;1.40;;;;;;;10.50;52.49;95073.47;6227211;22;20043;-85
2023/12/10 10:34:04;;;;;;;5.88;1.13;;;;;;;10.45;53.13;95076.63;6252054;22;20045;-85
2023/12/10 10:36:33;;;;;;;6.95;1.35;;;;;;;10.46;52.83;95061.81;6276988;22;20026;-86
2023/12/10 10:38:59;;;;;;;5.45;1.40;;;;;;;10.65;51.79;95076.06;6251800;22;20042;-86
2023/12/10 10:41:26;;;;;;;6.35;1.20;;;;;;;10.64;52.89;95082.22;6277220;22;20010;-86
2023/12/10 10:43:52;;;;;;;7.38;1.27;;;;;;;10.53;52.68;95079.13;6276061;22;20003;-86
2023/12/10 10:46:21;;;;;;;7.32;1.33;;;;;;;10.51;52.67;95085.50;6275982;22;20080;-85
2023/12/10 10:51:14;;;;;;;6.13;1.52;;;;;;;10.76;50.06;95078.19;6275801;22;20062;-86
2023/12/10 10:53:42;;;;;;;8.27;1.60;;;;;;;10.68;50.20;95080.88;6277064;22;20003;-86
2023/12/10 10:56:08;;;;;;;7.97;1.60;;;;;;;10.78;49.26;95065.81;6277294;22;20003;-86
2023/12/10 10:58:39;;;;;;;8.18;1.80;;;;;;;10.83;49.96;95060.84;6277183;22;19999;-86
2023/12/10 11:01:05;;;;;;;6.47;1.30;;;;;;;10.68;50.97;95052.25;6277052;22;20055;-86
2023/12/10 11:03:32;;;;;;;4.18;1.27;;;;;;;10.61;52.63;95048.81;6194784;22;20106;-87
2023/12/10 11:06:09;;;;;;;8.02;1.80;;;;;;;10.89;50.50;95030.69;6222057;22;20062;-86
2023/12/10 11:08:35;;;;;;;10.13;1.92;;;;;;;10.93;50.73;95031.97;6245913;22;20065;-86
2023/12/10 11:13:47;;;;;;;7.28;1.30;;;;;;;10.96;48.90;95024.56;6273080;22;20016;-85
2023/12/10 11:16:12;;;;;;;6.25;1.73;;;;;;;10.92;51.88;95033.72;6221290;22;20016;-86
2023/12/10 11:18:56;;;;;;;7.43;1.35;;;;;;;11.19;51.32;95031.41;6245921;22;20061;-86
2023/12/10 11:23:47;;;;;;;8.50;1.63;;;;;;;11.13;48.84;95019.94;6272354;22;20023;-86
2023/12/10 11:28:43;;;;;;;5.13;1.40;;;;;;;11.13;50.15;94998.31;6272981;22;20096;-86
2023/12/10 11:31:09;;;;;;;6.32;1.50;;;;;;;11.32;50.49;95009.91;6227103;22;20022;-85
2023/12/10 11:33:40;;;;;;;6.32;1.60;;;;;;;11.09;52.41;95005.69;6277088;22;20007;-86
2023/12/10 11:36:05;;;;;;;;;;;;;;;10.82;54.57;95009.81;6253074;22;20030;-86
2023/12/10 11:38:32;;;;;;;5.85;1.40;;;;;;;11.10;53.53;95012.50;6277541;22;19968;-86
2023/12/10 11:40:58;;;;;;;6.68;2.28;;;;;;;11.33;52.46;95008.91;6276618;22;20065;-86
2023/12/10 11:43:25;;;;;;;8.95;2.15;;;;;;;11.35;51.35;95012.13;6250453;22;20003;-86
2023/12/10 11:45:52;;;;;;;8.13;2.25;;;;;;;11.38;51.85;95005.75;6251784;22;20086;-86
2023/12/10 11:48:19;;;;;;;8.88;1.90;;;;;;;11.47;51.91;94995.00;6277063;22;20016;-86
2023/12/10 11:53:19;;;;;;;5.65;1.65;;;;;;;11.53;51.48;94993.44;6296084;22;20023;-86
2023/12/10 11:55:45;;;;;;;7.93;3.17;;;;;;;11.57;52.09;94978.25;6250457;22;20018;-85
2023/12/10 11:58:11;;;;;;;9.18;4.20;;;;;;;11.55;53.13;94978.44;6249104;22;20007;-85
2023/12/10 12:00:36;;;;;;;7.22;2.03;;;;;;;11.51;52.03;94972.00;6249588;22;20003;-85
2023/12/10 12:05:28;;;;;;;8.48;3.60;;;;;;;11.59;52.12;94974.44;6291656;22;20154;-85
2023/12/10 12:07:54;;;;;;;6.45;3.15;;;;;;;11.64;52.07;94985.09;6276497;22;20081;-86
2023/12/10 12:10:19;;;;;;;6.10;1.60;;;;;;;11.70;49.54;94966.09;6250665;22;20011;-85
2023/12/10 12:12:47;;;;;;;8.73;1.50;;;;;;;11.66;50.84;94962.28;6250171;22;20019;-85
2023/12/10 12:15:14;;;;;;;6.88;1.27;;;;;;;11.76;49.47;94953.31;6275818;22;20014;-86
2023/12/10 12:17:41;;;;;;;4.70;1.40;;;;;;;11.87;51.30;94961.41;6276125;22;19999;-85
2023/12/10 12:20:29;;;;;;;5.63;1.35;;;;;;;11.85;50.51;94967.81;6250675;22;20014;-85
2023/12/10 12:22:55;;;;;;;7.63;1.60;;;;;;;11.86;51.10;94958.97;6275513;22;20011;-85
2023/12/10 12:25:24;;;;;;;6.68;1.38;;;;;;;11.80;51.60;94964.97;6250003;22;20041;-85
2023/12/10 12:27:49;;;;;;;4.47;1.58;;;;;;;11.87;51.37;94987.47;6250619;22;20035;-85
2023/12/10 12:30:18;;;;;;;6.43;1.67;;;;;;;12.00;51.03;94989.38;6251590;22;20026;-86
2023/12/10 12:32:47;;;;;;;8.30;2.35;;;;;;;12.11;52.78;94990.66;6277146;22;20010;-85
2023/12/10 12:35:12;;;;;;;5.88;1.80;;;;;;;11.77;52.57;94991.44;6277806;22;20065;-86
2023/12/10 12:37:38;;;;;;;9.00;1.80;;;;;;;11.71;51.15;94987.78;6252209;22;20036;-86
2023/12/10 12:40:03;;;;;;;9.25;1.95;;;;;;;11.83;50.41;95004.47;6277254;22;20011;-85
2023/12/10 12:42:32;;;;;;;5.70;2.00;;;;;;;11.71;49.75;95000.81;6251529;22;20018;-86
2023/12/10 12:44:57;;;;;;;7.55;1.88;;;;;;;11.49;50.47;95000.03;6251946;22;20060;-86
2023/12/10 12:47:23;;;;;;;7.60;1.95;;;;;;;11.61;50.40;94998.50;6277157;22;20062;-86
2023/12/10 12:49:49;;;;;;;5.78;1.95;;;;;;;11.47;51.41;94996.81;6251802;22;20014;-85
2023/12/10 12:52:15;;;;;;;7.93;2.00;;;;;;;11.73;49.46;94991.00;6251921;22;20007;-85
2023/12/10 12:54:40;;;;;;;5.00;1.40;;;;;;;11.75;47.20;94973.38;6252044;22;20046;-86
2023/12/10 12:57:06;;;;;;;5.63;1.35;;;;;;;11.55;48.71;94978.44;6277966;22;19999;-86
2023/12/10 12:59:31;;;;;;;5.55;1.60;;;;;;;11.10;49.17;94954.41;6252259;22;20007;-86
2023/12/10 13:01:59;;;;;;;6.72;1.70;;;;;;;11.17;49.18;94952.69;6252494;22;20007;-86
2023/12/10 13:06:53;;;;;;;5.18;1.48;;;;;;;10.91;50.64;94955.88;6273404;22;20020;-86
2023/12/10 13:09:22;;;;;;;6.60;1.45;;;;;;;10.93;49.69;94944.28;6277732;22;20022;-86
2023/12/10 13:11:48;;;;;;;5.57;1.50;;;;;;;10.83;51.02;94967.19;6277320;22;20068;-86
2023/12/10 13:14:14;;;;;;;4.13;1.40;;;;;;;10.97;50.64;94952.53;6244005;22;20007;-86
2023/12/10 13:16:42;;;;;;;6.80;1.45;;;;;;;11.03;51.27;94954.38;6278607;22;20011;-86
2023/12/10 13:19:08;;;;;;;5.93;1.35;;;;;;;11.44;48.69;94958.09;6253179;22;20022;-87
2023/12/10 13:21:33;;;;;;;4.18;1.45;;;;;;;11.17;49.50;94955.28;6252920;22;20090;-88
2023/12/10 13:23:59;;;;;;;6.20;1.42;;;;;;;11.13;49.88;94948.84;6277860;22;20007;-87
2023/12/10 13:26:24;;;;;;;6.25;1.50;;;;;;;11.04;51.07;94963.81;6227625;22;20007;-86
2023/12/10 13:31:15;;;;;;;5.50;1.48;;;;;;;11.06;51.16;94966.19;6270110;22;20077;-86
2023/12/10 13:33:40;;;;;;;7.63;1.63;;;;;;;11.13;50.40;94957.47;6252425;22;20082;-86
2023/12/10 13:36:09;;;;;;;4.85;1.60;;;;;;;11.31;49.62;94964.84;6253167;22;20033;-86
2023/12/10 13:38:35;;;;;;;6.30;1.50;;;;;;;11.02;51.86;94947.53;6252740;22;20011;-87
2023/12/10 13:41:00;;;;;;;6.88;1.63;;;;;;;11.02;51.70;94964.97;6251903;22;20011;-87
2023/12/10 13:43:26;;;;;;;3.70;1.30;;;;;;;11.14;50.33;94945.28;6241961;22;20019;-87
2023/12/10 13:45:52;;;;;;;6.53;1.67;;;;;;;11.23;49.81;94949.34;6221756;22;20090;-87
2023/12/10 13:48:17;;;;;;;4.90;1.48;;;;;;;11.20;51.49;94949.72;6246796;22;20019;-86
2023/12/10 13:50:46;;;;;;;5.53;1.50;;;;;;;11.33;52.97;94954.25;6221481;22;20015;-86
2023/12/10 13:53:11;;;;;;;4.22;1.50;;;;;;;11.18;50.05;94938.69;6221994;22;20007;-87
2023/12/10 13:58:12;;;;;;;3.88;1.05;;;;;;;11.44;49.33;94938.09;6271697;22;20012;-87
2023/12/10 14:00:37;;;;;;;6.03;1.40;;;;;;;11.33;49.62;94936.00;6246759;22;20015;-87
2023/12/10 14:03:03;;;;;;;5.00;1.50;;;;;;;11.23;49.76;94927.69;6246921;22;20008;-87
2023/12/10 14:05:28;;;;;;;6.15;1.33;;;;;;;11.29;49.71;94926.94;6272456;22;20011;-86
2023/12/10 14:07:54;;;;;;;5.47;1.65;;;;;;;11.00;49.53;94923.50;6246819;22;20008;-86
2023/12/10 14:10:20;;;;;;;4.15;1.80;;;;;;;10.71;51.71;94925.25;6271957;22;20016;-86
2023/12/10 14:12:46;;;;;;;3.95;1.30;;;;;;;10.82;51.02;94895.34;6276864;22;20067;-85
2023/12/10 14:15:14;;;;;;;4.85;1.67;;;;;;;10.71;51.92;94891.44;6277036;22;20027;-86
2023/12/10 14:17:40;;;;;;;4.43;1.20;;;;;;;10.69;51.93;94895.22;6276183;22;19999;-85
2023/12/10 14:20:06;;;;;;;4.85;1.50;;;;;;;10.75;50.90;94894.47;6250060;22;20065;-85
2023/12/10 14:22:33;;;;;;;6.22;1.98;;;;;;;10.37;52.51;94895.50;6251728;22;20021;-85
2023/12/10 14:25:03;;;;;;;6.50;1.88;;;;;;;10.40;52.65;94886.53;6226570;22;20003;-84
2023/12/10 14:27:29;;;;;;;5.05;1.52;;;;;;;10.25;53.75;94880.56;6251749;22;20076;-85
2023/12/10 14:29:55;;;;;;;6.70;1.80;;;;;;;10.49;53.38;94888.03;6251756;22;20007;-84
2023/12/10 14:32:20;;;;;;;5.32;1.50;;;;;;;10.57;50.83;94872.31;6277294;22;20061;-84
2023/12/10 14:34:46;;;;;;;3.78;1.30;;;;;;;10.41;51.83;94871.75;6276874;22;20014;-86
2023/12/10 14:37:11;;;;;;;4.63;2.20;;;;;;;10.59;52.23;94876.53;6225670;22;20060;-86
2023/12/10 14:39:38;;;;;;;7.93;5.10;;;;;;;10.51;53.10;94859.25;6251724;22;20055;-85
2023/12/10 14:42:05;;;;;;;8.88;5.97;;;;;;;10.65;53.69;94862.78;6252423;22;20003;-86
2023/12/10 14:44:31;;;;;;;14.05;8.07;;;;;;;10.56;54.18;94862.88;6277455;22;20051;-85
2023/12/10 14:46:57;;;;;;;10.10;4.75;;;;;;;10.32;54.76;94845.06;6277546;22;20003;-85
2023/12/10 15:02:13;;;;;;;5.78;1.50;;;;;;;10.36;54.03;94807.31;6271394;22;20104;-86
2023/12/10 15:04:41;;;;;;;7.20;2.10;;;;;;;10.22;53.49;94801.13;6246631;22;20019;-85
2023/12/10 15:07:09;;;;;;;4.75;2.10;;;;;;;10.17;53.66;94798.31;6271329;22;20031;-85
2023/12/10 15:14:36;;;;;;;5.68;1.50;;;;;;;10.20;53.60;94784.13;6269601;22;20027;-86
2023/12/10 15:17:06;;;;;;;3.10;1.30;;;;;;;10.15;53.61;94774.31;6246199;22;20018;-85
2023/12/10 15:19:31;;;;;;;4.43;1.30;;;;;;;10.12;53.16;94780.66;6247266;22;20004;-85
2023/12/10 15:21:58;;;;;;;5.15;1.17;;;;;;;10.12;53.14;94769.47;6271906;22;20012;-86
2023/12/10 15:29:24;;;;;;;7.88;1.48;;;;;;;10.05;54.07;94785.00;6303781;22;20030;-85
2023/12/10 15:52:20;;;;;;;3.83;1.23;;;;;;;9.82;53.07;94779.94;6303571;22;20030;-86
2023/12/10 15:54:45;;;;;;;3.90;1.10;;;;;;;9.92;52.31;94790.06;6251989;22;20067;-85
2023/12/10 16:07:25;;;;;;;8.23;4.78;;;;;;;9.75;53.51;94785.09;6272395;22;20008;-86
2023/12/10 16:09:50;;;;;;;4.75;1.63;;;;;;;9.73;53.61;94794.06;6248614;22;20086;-86
2023/12/10 16:14:44;;;;;;;4.47;1.70;;;;;;;9.46;54.23;94785.13;6273866;22;20027;-85
2023/12/10 16:17:10;;;;;;;4.53;1.70;;;;;;;9.38;54.04;94773.84;6248917;22;20007;-86
2023/12/10 16:19:39;;;;;;;5.57;2.85;;;;;;;9.48;53.55;94783.16;6247834;22;20000;-86
2023/12/10 16:27:05;;;;;;;6.68;1.65;;;;;;;9.19;53.94;94771.81;6305688;22;20084;-85
2023/12/10 16:29:30;;;;;;;3.70;1.73;;;;;;;9.18;54.69;94772.81;6228132;22;20003;-86
2023/12/10 16:32:00;;;;;;;6.72;4.13;;;;;;;8.86;54.66;94763.59;6253537;22;20011;-85
2023/12/10 16:34:25;;;;;;;5.00;2.33;;;;;;;9.19;54.16;94772.63;6253568;22;20007;-86
2023/12/10 16:39:26;;;;;;;4.75;2.60;;;;;;;9.15;54.59;94773.16;6273624;22;20027;-86
2023/12/10 16:41:51;;;;;;;5.90;2.83;;;;;;;8.78;55.46;94767.06;6222916;22;20010;-85
2023/12/10 16:44:17;;;;;;;6.28;2.65;;;;;;;9.08;54.55;94770.50;6247978;22;20000;-86
2023/12/10 16:46:42;;;;;;;3.45;1.50;;;;;;;8.89;54.88;94776.19;6248111;22;20011;-85
2023/12/10 16:49:10;;;;;;;3.38;1.23;;;;;;;8.90;54.83;94768.22;6222529;22;20008;-85
2023/12/10 16:51:36;;;;;;;4.65;2.20;;;;;;;8.86;54.27;94764.38;6223286;22;20015;-85
2023/12/10 16:54:04;;;;;;;4.53;1.52;;;;;;;8.56;55.06;94755.75;6247011;22;20018;-86
2023/12/10 16:56:33;;;;;;;2.55;1.10;;;;;;;8.60;54.95;94763.03;6248072;22;20011;-86